»·PEaware :: N333ZA KGCN-KBVU

N333ZA :: KGCN-KBVU

FLIGHT INFORMATION

Flight Status: Arrived
Operator: Privately registered:
United States
More flights under this callsign
Pilot: Judd H. (29974)
Aircraft: CESSNA 210 CENTURION
(C210)
More flights by this aircraft type
Origin: KGCN Grand Canyon Natl Park
United States
Destination: KBVU Boulder City
United States
More flights between these airports :: More routes between these airports
Route: +PARKS4 PGS WINDS
File this flight plan on PilotEdge
Remarks:
Altitude:
(Current/Filed)
16,000ft
Speed:
(Current/Filed)
150kts
Departed: 03-Nov-20 02:07 PM
Arrived: 03-Nov-20 03:03 PM
Distance/Time
Traveled:
132nm/0:56
Distance/Time
To Go:
Arrived

Flight Plot

Page will automatically refresh every two minutes.

Flight plan parsing failed; only flown route is shown


Map Options




Map Legend


Flown Route
Filed Route
Departure Airport
Arrival Airport
Navaid (VOR, NDB)
Fix

Horizontal Profiles

Position Reports

Time Latitude Longitude Heading Altitude Ground
Speed
03-Nov-20 13:36 35.953785 -112.142537 74 6612ft 0kts
03-Nov-20 13:37 35.953786 -112.142532 74 6612ft 0kts
03-Nov-20 13:38 35.953787 -112.142527 74 6612ft 0kts
03-Nov-20 13:39 35.953788 -112.142522 74 6612ft 0kts
03-Nov-20 13:40 35.953790 -112.142515 74 6612ft 0kts
03-Nov-20 13:41 35.953791 -112.142508 74 6612ft 0kts
03-Nov-20 13:42 35.953793 -112.142502 74 6612ft 0kts
03-Nov-20 13:43 35.953794 -112.142495 74 6612ft 0kts
03-Nov-20 13:44 35.953796 -112.142488 74 6612ft 0kts
03-Nov-20 13:45 35.953797 -112.142482 74 6612ft 0kts
03-Nov-20 13:46 35.953799 -112.142475 74 6612ft 0kts
03-Nov-20 13:47 35.953799 -112.142473 74 6612ft 0kts
03-Nov-20 13:48 35.953799 -112.142472 74 6612ft 0kts
03-Nov-20 13:49 35.953800 -112.142471 74 6612ft 0kts
03-Nov-20 13:49 35.953800 -112.142471 74 6612ft 0kts
03-Nov-20 13:51 35.953800 -112.142469 75 6612ft 0kts
03-Nov-20 13:51 35.953800 -112.142468 75 6612ft 0kts
03-Nov-20 13:53 35.953800 -112.142467 75 6612ft 0kts
03-Nov-20 13:53 35.953801 -112.142466 75 6612ft 0kts
03-Nov-20 13:55 35.953801 -112.142465 75 6612ft 0kts
03-Nov-20 13:55 35.953801 -112.142464 75 6612ft 0kts
03-Nov-20 13:56 35.953801 -112.142463 75 6612ft 0kts
03-Nov-20 13:57 35.953802 -112.142462 75 6612ft 0kts
03-Nov-20 13:58 35.953802 -112.142461 75 6612ft 0kts
03-Nov-20 13:59 35.953802 -112.142460 75 6612ft 0kts
03-Nov-20 14:00 35.953802 -112.142459 75 6612ft 0kts
03-Nov-20 14:01 35.953802 -112.142458 75 6612ft 0kts
03-Nov-20 14:02 35.955051 -112.141864 38 6612ft 16kts
03-Nov-20 14:03 35.958997 -112.137872 39 6612ft 24kts
03-Nov-20 14:04 35.961321 -112.136396 274 6612ft 7kts
03-Nov-20 14:05 35.961344 -112.136918 273 6612ft 5kts
03-Nov-20 14:06 35.953072 -112.146235 218 6613ft 96kts
03-Nov-20 14:07 35.937004 -112.176788 251 7336ft 120kts
03-Nov-20 14:08 35.925807 -112.216374 250 8182ft 122kts
03-Nov-20 14:09 35.916433 -112.257480 255 8894ft 129kts
03-Nov-20 14:10 35.907762 -112.298765 253 9452ft 120kts
03-Nov-20 14:11 35.897346 -112.340904 254 10081ft 134kts
03-Nov-20 14:12 35.887685 -112.386994 254 11068ft 147kts
03-Nov-20 14:13 35.875487 -112.437523 254 11957ft 150kts
03-Nov-20 14:14 35.863981 -112.484233 250 13113ft 137kts
03-Nov-20 14:15 35.852164 -112.527989 250 14138ft 127kts
03-Nov-20 14:16 35.841005 -112.569510 257 14937ft 133kts
03-Nov-20 14:17 35.833192 -112.611661 258 15925ft 126kts
03-Nov-20 14:18 35.823215 -112.663126 259 15889ft 180kts
03-Nov-20 14:19 35.812711 -112.725906 259 16049ft 193kts
03-Nov-20 14:20 35.800509 -112.792869 255 16026ft 201kts
03-Nov-20 14:21 35.786774 -112.856980 256 16794ft 170kts
03-Nov-20 14:22 35.774498 -112.911392 251 17684ft 158kts
03-Nov-20 14:23 35.762819 -112.963128 249 18061ft 163kts
03-Nov-20 14:24 35.751107 -113.017533 250 18328ft 165kts
03-Nov-20 14:25 35.736707 -113.073495 247 18333ft 174kts
03-Nov-20 14:26 35.723212 -113.131148 252 18298ft 182kts
03-Nov-20 14:27 35.710638 -113.190461 251 18352ft 179kts
03-Nov-20 14:28 35.697288 -113.249770 249 18342ft 179kts
03-Nov-20 14:29 35.682669 -113.308539 249 18335ft 179kts
03-Nov-20 14:30 35.668332 -113.367085 249 18326ft 179kts
03-Nov-20 14:31 35.653952 -113.425676 249 18326ft 178kts
03-Nov-20 14:32 35.639559 -113.484186 249 18322ft 179kts
03-Nov-20 14:33 35.625745 -113.543120 259 18312ft 182kts
03-Nov-20 14:34 35.638471 -113.605172 278 18295ft 189kts
03-Nov-20 14:35 35.652318 -113.667746 278 18280ft 189kts
03-Nov-20 14:36 35.666214 -113.730103 278 18268ft 189kts
03-Nov-20 14:37 35.680059 -113.792243 278 18264ft 188kts
03-Nov-20 14:38 35.694020 -113.854887 280 18257ft 189kts
03-Nov-20 14:39 35.718137 -113.913417 283 18264ft 190kts
03-Nov-20 14:40 35.743917 -113.971499 293 18239ft 195kts
03-Nov-20 14:41 35.760137 -114.032914 274 18236ft 187kts
03-Nov-20 14:42 35.770413 -114.095872 275 18233ft 187kts
03-Nov-20 14:43 35.781174 -114.158337 276 18223ft 186kts
03-Nov-20 14:44 35.791966 -114.220841 277 18219ft 186kts
03-Nov-20 14:45 35.802709 -114.283301 277 18205ft 186kts
03-Nov-20 14:46 35.813821 -114.348288 279 17610ft 206kts
03-Nov-20 14:47 35.825747 -114.417818 279 16770ft 212kts
03-Nov-20 14:48 35.843371 -114.486126 286 16054ft 206kts
03-Nov-20 14:49 35.859781 -114.545107 287 14940ft 159kts
03-Nov-20 14:50 35.873208 -114.593382 287 13428ft 141kts
03-Nov-20 14:51 35.886203 -114.637636 306 12017ft 130kts
03-Nov-20 14:52 35.902344 -114.610474 98 11334ft 167kts
03-Nov-20 14:53 35.894537 -114.548796 99 10346ft 187kts
03-Nov-20 14:54 35.863544 -114.540533 261 9334ft 145kts
03-Nov-20 14:55 35.870472 -114.589755 281 8365ft 158kts
03-Nov-20 14:56 35.879525 -114.645229 276 7379ft 167kts
03-Nov-20 14:57 35.882591 -114.701911 273 6394ft 165kts
03-Nov-20 14:58 35.885211 -114.757240 273 5599ft 155kts
03-Nov-20 14:59 35.887621 -114.809315 273 4896ft 148kts
03-Nov-20 15:00 35.900001 -114.850533 353 3729ft 139kts
03-Nov-20 15:01 35.931803 -114.856508 345 2523ft 95kts
03-Nov-20 15:02 35.948115 -114.861571 358 2158ft 12kts
03-Nov-20 15:03 35.948076 -114.858541 97 2158ft 8kts
03-Nov-20 15:04 35.948388 -114.857341 121 2158ft 11kts
03-Nov-20 15:05 35.948061 -114.854702 8 2158ft 0kts

Navigation Log

Ident Type
Flight plan parsing failed, navigation log unavailable